createdAt,value
2017-11-27T00:00:17.316Z,4.58
2017-11-27T00:01:27.020Z,4.61
2017-11-27T00:02:36.992Z,4.6
2017-11-27T00:03:46.180Z,4.6
2017-11-27T00:04:55.904Z,4.66
2017-11-27T00:06:05.853Z,4.71
2017-11-27T00:07:15.566Z,4.67
2017-11-27T00:08:25.267Z,4.58
2017-11-27T00:09:34.712Z,4.7
2017-11-27T00:10:44.422Z,4.63
2017-11-27T00:11:53.900Z,4.6
2017-11-27T00:13:03.871Z,4.64
2017-11-27T00:14:13.854Z,4.63
2017-11-27T00:15:23.564Z,4.68
2017-11-27T00:16:33.273Z,4.67
2017-11-27T00:17:43.265Z,4.58
2017-11-27T00:18:52.983Z,4.6
2017-11-27T00:20:02.695Z,4.61
2017-11-27T00:21:12.413Z,4.66
2017-11-27T00:22:22.111Z,4.61
2017-11-27T00:23:32.082Z,4.66
2017-11-27T00:24:41.523Z,4.63
2017-11-27T00:25:51.227Z,4.61
2017-11-27T00:27:00.932Z,4.66
2017-11-27T00:28:11.165Z,4.6
2017-11-27T00:29:20.604Z,4.57
2017-11-27T00:30:30.581Z,4.66
2017-11-27T00:31:40.316Z,4.6
2017-11-27T00:32:50.029Z,4.63
2017-11-27T00:33:59.996Z,4.66
2017-11-27T00:35:09.729Z,4.64
2017-11-27T00:36:19.453Z,4.71
2017-11-27T00:37:29.160Z,4.61
2017-11-27T00:38:39.149Z,4.63
2017-11-27T00:39:48.861Z,4.68
2017-11-27T00:40:58.294Z,4.76
2017-11-27T00:42:08.007Z,4.74
2017-11-27T00:43:17.701Z,4.75
2017-11-27T00:44:27.422Z,4.7
2017-11-27T00:45:37.134Z,4.71
2017-11-27T00:46:47.099Z,4.71
2017-11-27T00:47:56.541Z,4.68
2017-11-27T00:49:06.505Z,4.67
2017-11-27T00:50:16.491Z,4.7
2017-11-27T00:51:26.228Z,4.7
2017-11-27T00:52:35.408Z,4.71
2017-11-27T00:53:44.858Z,4.74
2017-11-27T00:54:54.824Z,4.7
2017-11-27T00:56:04.003Z,4.68
2017-11-27T00:57:13.999Z,4.67
2017-11-27T00:58:23.445Z,4.7
2017-11-27T00:59:33.183Z,4.68
2017-11-27T01:00:42.974Z,4.66
2017-11-27T01:01:52.676Z,4.75
2017-11-27T01:03:02.652Z,4.67
2017-11-27T01:04:12.636Z,4.71
2017-11-27T01:05:21.821Z,4.61
2017-11-27T01:06:32.039Z,4.68
2017-11-27T01:07:41.750Z,4.64
2017-11-27T01:08:51.196Z,4.68
2017-11-27T01:10:00.922Z,4.63
2017-11-27T01:11:10.920Z,4.66
2017-11-27T01:12:20.907Z,4.68
2017-11-27T01:13:30.879Z,4.67
2017-11-27T01:14:40.862Z,4.64
2017-11-27T01:15:50.556Z,4.66
2017-11-27T01:17:00.516Z,4.66
2017-11-27T01:18:10.222Z,4.67
2017-11-27T01:19:20.203Z,4.67
2017-11-27T01:20:30.172Z,4.67
2017-11-27T01:21:40.155Z,4.67
2017-11-27T01:22:49.882Z,4.66
2017-11-27T01:23:59.833Z,4.67
2017-11-27T01:25:09.539Z,4.63
2017-11-27T01:26:19.541Z,4.61
2017-11-27T01:27:29.505Z,4.63
2017-11-27T01:28:38.941Z,4.57
2017-11-27T01:29:48.657Z,4.58
2017-11-27T01:30:58.615Z,4.49
2017-11-27T01:32:08.602Z,4.53
2017-11-27T01:33:18.571Z,4.5
2017-11-27T01:34:28.541Z,4.6
2017-11-27T01:35:37.992Z,4.49
2017-11-27T01:36:47.701Z,4.56
2017-11-27T01:37:56.623Z,4.52
2017-11-27T01:39:06.065Z,4.52
2017-11-27T01:40:16.035Z,4.5
2017-11-27T01:41:25.475Z,4.57
2017-11-27T01:42:35.457Z,4.52
2017-11-27T01:43:45.416Z,4.53
2017-11-27T01:44:55.431Z,4.57
2017-11-27T01:46:05.145Z,4.57
2017-11-27T01:47:14.577Z,4.6
2017-11-27T01:48:24.283Z,4.58
2017-11-27T01:49:34.006Z,4.57
2017-11-27T01:50:43.995Z,4.61
2017-11-27T01:51:53.973Z,4.61
2017-11-27T01:53:03.934Z,4.56
2017-11-27T01:54:13.899Z,4.63
2017-11-27T01:55:23.600Z,4.52
2017-11-27T01:56:33.317Z,4.6
2017-11-27T01:57:43.275Z,4.61
2017-11-27T01:58:52.995Z,4.52
2017-11-27T02:00:01.908Z,4.58
2017-11-27T02:01:11.630Z,4.56
2017-11-27T02:02:21.593Z,4.6
2017-11-27T02:03:31.330Z,4.61
2017-11-27T02:04:40.510Z,4.6
2017-11-27T02:05:50.468Z,4.61
2017-11-27T02:07:00.179Z,4.64
2017-11-27T02:08:09.885Z,4.6
2017-11-27T02:09:19.596Z,4.6
2017-11-27T02:10:29.326Z,4.61
2017-11-27T02:11:39.036Z,4.66
2017-11-27T02:12:48.750Z,4.63
2017-11-27T02:13:58.743Z,4.68
2017-11-27T02:15:08.721Z,4.64
2017-11-27T02:16:18.697Z,4.66
2017-11-27T02:17:28.396Z,4.68
2017-11-27T02:18:38.103Z,4.58
2017-11-27T02:19:47.820Z,4.61
2017-11-27T02:20:57.784Z,4.6
2017-11-27T02:22:07.223Z,4.61
2017-11-27T02:23:16.402Z,4.6
2017-11-27T02:24:26.136Z,4.58
2017-11-27T02:25:35.849Z,4.67
2017-11-27T02:26:45.297Z,4.63
2017-11-27T02:27:55.261Z,4.68
2017-11-27T02:29:05.233Z,4.66
2017-11-27T02:30:14.680Z,4.67
2017-11-27T02:31:24.420Z,4.67
2017-11-27T02:32:34.121Z,4.66
2017-11-27T02:33:43.827Z,4.7
2017-11-27T02:34:53.320Z,4.67
2017-11-27T02:36:03.025Z,4.64
2017-11-27T02:37:13.002Z,4.64
2017-11-27T02:38:22.710Z,4.63
2017-11-27T02:39:32.436Z,4.61
2017-11-27T02:40:41.618Z,4.61
2017-11-27T02:41:51.322Z,4.6
2017-11-27T02:43:01.060Z,4.7
2017-11-27T02:44:10.766Z,4.7
2017-11-27T02:45:20.757Z,4.67
2017-11-27T02:46:30.213Z,4.58
2017-11-27T02:47:40.192Z,4.63
2017-11-27T02:48:49.896Z,4.61
2017-11-27T02:49:59.615Z,4.66
2017-11-27T02:51:09.577Z,4.67
2017-11-27T02:52:19.280Z,4.66
2017-11-27T02:53:28.467Z,4.71
2017-11-27T02:54:37.933Z,4.66
2017-11-27T02:55:47.646Z,4.74
2017-11-27T02:56:57.616Z,4.64
2017-11-27T02:58:06.529Z,4.66
2017-11-27T02:59:16.253Z,4.61
2017-11-27T03:00:25.971Z,4.64
2017-11-27T03:01:35.950Z,4.6
2017-11-27T03:02:45.651Z,4.67
2017-11-27T03:03:54.829Z,4.6
2017-11-27T03:05:04.525Z,4.66
2017-11-27T03:06:14.489Z,4.67
2017-11-27T03:07:23.936Z,4.6
2017-11-27T03:08:33.380Z,4.67
2017-11-27T03:09:43.352Z,4.66
2017-11-27T03:10:53.051Z,4.64
2017-11-27T03:12:02.538Z,4.67
2017-11-27T03:13:11.981Z,4.66
2017-11-27T03:14:21.945Z,4.58
2017-11-27T03:15:31.915Z,4.61
2017-11-27T03:16:41.886Z,4.56
2017-11-27T03:17:51.867Z,4.61
2017-11-27T03:19:01.568Z,4.56
2017-11-27T03:20:11.544Z,4.6
2017-11-27T03:21:21.534Z,4.58
2017-11-27T03:22:30.708Z,4.64
2017-11-27T03:23:40.423Z,4.6
2017-11-27T03:24:50.150Z,4.49
2017-11-27T03:26:00.124Z,4.56
2017-11-27T03:27:10.100Z,4.66
2017-11-27T03:28:19.811Z,4.58
2017-11-27T03:29:29.813Z,4.52
2017-11-27T03:30:39.271Z,4.61
2017-11-27T03:31:49.253Z,4.6
2017-11-27T03:32:58.960Z,4.56
2017-11-27T03:34:08.935Z,4.6
2017-11-27T03:35:18.942Z,4.58
2017-11-27T03:36:28.919Z,4.63
2017-11-27T03:37:38.906Z,4.64
2017-11-27T03:38:48.348Z,4.52
2017-11-27T03:39:57.796Z,4.63
2017-11-27T03:41:07.512Z,4.58
2017-11-27T03:42:17.481Z,4.53
2017-11-27T03:43:27.193Z,4.63
2017-11-27T03:44:37.187Z,4.61
2017-11-27T03:45:46.877Z,4.57
2017-11-27T03:46:56.354Z,4.56
2017-11-27T03:48:06.091Z,4.57
2017-11-27T03:49:16.061Z,4.6
2017-11-27T03:50:26.040Z,4.57
2017-11-27T03:51:35.742Z,4.56
2017-11-27T03:52:45.724Z,4.57
2017-11-27T03:53:55.695Z,4.5
2017-11-27T03:55:05.406Z,4.56
2017-11-27T03:56:15.109Z,4.48
2017-11-27T03:57:25.080Z,4.49
2017-11-27T03:58:34.791Z,4.49
2017-11-27T03:59:44.256Z,4.52
2017-11-27T04:00:53.430Z,4.5
2017-11-27T04:02:03.426Z,4.56
2017-11-27T04:03:13.403Z,4.48
2017-11-27T04:04:23.117Z,4.56
2017-11-27T04:05:33.079Z,4.53
2017-11-27T04:06:43.075Z,4.34
2017-11-27T04:07:53.056Z,4.43
2017-11-27T04:09:02.512Z,4.34
2017-11-27T04:10:12.500Z,4.3
2017-11-27T04:11:22.475Z,4.32
2017-11-27T04:12:32.439Z,4.32
2017-11-27T04:13:42.416Z,4.36
2017-11-27T04:14:52.378Z,4.38
2017-11-27T04:16:01.557Z,4.4
2017-11-27T04:17:11.286Z,4.27
2017-11-27T04:18:21.268Z,4.24
2017-11-27T04:19:31.249Z,4.22
2017-11-27T04:20:40.965Z,4.36
2017-11-27T04:21:50.930Z,4.27
2017-11-27T04:23:00.897Z,4.24
2017-11-27T04:24:10.613Z,4.25
2017-11-27T04:25:19.793Z,4.24
2017-11-27T04:26:29.779Z,4.21
2017-11-27T04:27:39.759Z,4.24
2017-11-27T04:28:49.724Z,4.24
2017-11-27T04:29:59.177Z,4.18
2017-11-27T04:31:09.144Z,4.21
2017-11-27T04:32:19.114Z,4.2
2017-11-27T04:33:28.566Z,4.2
2017-11-27T04:34:38.010Z,4.1
2017-11-27T04:35:47.969Z,4.04
2017-11-27T04:36:57.672Z,4.02
2017-11-27T04:38:07.633Z,4.12
2017-11-27T04:39:17.591Z,4.1
2017-11-27T04:40:27.575Z,4.22
2017-11-27T04:41:37.548Z,4.18
2017-11-27T04:42:47.524Z,4.16
2017-11-27T04:43:57.260Z,4.14
2017-11-27T04:45:07.229Z,4.22
2017-11-27T04:46:17.246Z,4.16
2017-11-27T04:47:26.714Z,4.13
2017-11-27T04:48:36.417Z,4.14
2017-11-27T04:49:46.403Z,4.14
2017-11-27T04:50:55.848Z,4.14
2017-11-27T04:52:05.851Z,4.18
2017-11-27T04:53:15.850Z,3.99
2017-11-27T04:54:25.554Z,4.06
2017-11-27T04:55:35.554Z,4.12
2017-11-27T04:56:45.266Z,3.96
2017-11-27T04:57:54.981Z,4.03
2017-11-27T04:59:04.169Z,4
2017-11-27T05:00:14.139Z,3.91
2017-11-27T05:01:23.859Z,3.96
2017-11-27T05:02:33.578Z,3.88
2017-11-27T05:03:43.548Z,3.86
2017-11-27T05:04:53.509Z,3.89
2017-11-27T05:06:03.205Z,3.81
2017-11-27T05:07:13.193Z,3.85
2017-11-27T05:08:22.904Z,3.88
2017-11-27T05:09:32.871Z,3.82
2017-11-27T05:10:42.330Z,3.82
2017-11-27T05:11:52.033Z,3.82
2017-11-27T05:13:02.013Z,3.85
2017-11-27T05:14:11.972Z,3.81
2017-11-27T05:15:21.679Z,3.82
2017-11-27T05:16:31.656Z,3.84
2017-11-27T05:17:41.361Z,3.89
2017-11-27T05:18:50.813Z,3.86
2017-11-27T05:20:00.529Z,3.96
2017-11-27T05:21:10.252Z,3.95
2017-11-27T05:22:19.957Z,3.86
2017-11-27T05:23:29.919Z,3.89
2017-11-27T05:24:39.785Z,3.85
2017-11-27T05:25:49.501Z,3.85
2017-11-27T05:26:59.237Z,3.78
2017-11-27T05:28:08.422Z,3.76
2017-11-27T05:29:18.408Z,3.81
2017-11-27T05:30:28.406Z,3.76
2017-11-27T05:31:38.098Z,3.81
2017-11-27T05:32:48.081Z,3.81
2017-11-27T05:33:57.523Z,3.81
2017-11-27T05:35:07.512Z,3.81
2017-11-27T05:36:17.213Z,3.85
2017-11-27T05:37:26.921Z,3.82
2017-11-27T05:38:36.631Z,3.76
2017-11-27T05:39:46.330Z,3.85
2017-11-27T05:40:56.304Z,3.88
2017-11-27T05:42:06.028Z,3.77
2017-11-27T05:43:16.008Z,3.81
2017-11-27T05:44:25.452Z,3.81
2017-11-27T05:45:35.424Z,3.84
2017-11-27T05:46:45.129Z,3.84
2017-11-27T05:47:54.830Z,3.73
2017-11-27T05:49:04.533Z,3.7
2017-11-27T05:50:14.238Z,3.67
2017-11-27T05:51:23.942Z,3.67
2017-11-27T05:52:33.651Z,3.63
2017-11-27T05:53:43.102Z,3.68
2017-11-27T05:54:53.090Z,3.67
2017-11-27T05:56:02.798Z,3.59
2017-11-27T05:57:12.791Z,3.55
2017-11-27T05:58:22.493Z,3.48
2017-11-27T05:59:32.202Z,3.56
2017-11-27T06:00:42.166Z,3.55
2017-11-27T06:01:51.866Z,3.45
2017-11-27T06:03:01.584Z,3.36
2017-11-27T06:04:11.055Z,3.33
2017-11-27T06:05:20.760Z,3.36
2017-11-27T06:06:30.722Z,3.21
2017-11-27T06:07:40.686Z,3.19
2017-11-27T06:08:50.400Z,3.18
2017-11-27T06:10:00.115Z,3.19
2017-11-27T06:11:10.065Z,3.03
2017-11-27T06:12:20.050Z,3.15
2017-11-27T06:13:30.018Z,3.08
2017-11-27T06:14:39.461Z,3.08
2017-11-27T06:15:49.433Z,3.05
2017-11-27T06:16:59.393Z,3
2017-11-27T06:18:08.846Z,2.98
2017-11-27T06:19:18.539Z,2.98
2017-11-27T06:20:27.996Z,2.91
2017-11-27T06:21:37.976Z,2.9
2017-11-27T06:22:47.684Z,2.94
2017-11-27T06:23:57.382Z,2.85
2017-11-27T06:25:07.390Z,2.8
2017-11-27T06:26:17.369Z,2.88
2017-11-27T06:27:26.810Z,2.85
2017-11-27T06:28:36.516Z,2.85
2017-11-27T06:29:46.494Z,2.82
2017-11-27T06:30:56.195Z,2.82
2017-11-27T06:32:05.917Z,2.77
2017-11-27T06:33:15.355Z,2.75
2017-11-27T06:34:24.797Z,2.82
2017-11-27T06:35:34.779Z,2.82
2017-11-27T06:36:44.501Z,2.77
2017-11-27T06:37:53.963Z,2.75
2017-11-27T06:39:03.945Z,2.77
2017-11-27T06:40:13.921Z,2.82
2017-11-27T06:41:23.672Z,2.68
2017-11-27T06:42:33.380Z,2.77
2017-11-27T06:43:43.351Z,2.69
2017-11-27T06:44:53.337Z,2.73
2017-11-27T06:46:03.078Z,2.64
2017-11-27T06:47:13.061Z,2.65
2017-11-27T06:48:22.792Z,2.69
2017-11-27T06:49:32.251Z,2.58
2017-11-27T06:50:41.982Z,2.57
2017-11-27T06:51:51.966Z,2.54
2017-11-27T06:53:01.935Z,2.46
2017-11-27T06:54:11.669Z,2.5
2017-11-27T06:55:21.381Z,2.5
2017-11-27T06:56:31.355Z,2.43
2017-11-27T06:57:41.554Z,2.41
2017-11-27T06:58:51.277Z,2.47
2017-11-27T07:00:00.998Z,2.41
2017-11-27T07:01:11.014Z,2.3
2017-11-27T07:02:21.105Z,2.39
2017-11-27T07:03:31.146Z,2.26
2017-11-27T07:04:40.885Z,2.37
2017-11-27T07:05:50.356Z,2.32
2017-11-27T07:07:00.360Z,2.34
2017-11-27T07:08:10.053Z,2.26
2017-11-27T07:09:20.036Z,2.36
2017-11-27T07:10:30.251Z,2.37
2017-11-27T07:11:39.965Z,2.34
2017-11-27T07:12:49.949Z,2.25
2017-11-27T07:13:59.674Z,2.3
2017-11-27T07:15:09.643Z,2.28
2017-11-27T07:16:19.100Z,2.25
2017-11-27T07:17:28.801Z,2.33
2017-11-27T07:18:38.512Z,2.23
2017-11-27T07:19:48.223Z,2.32
2017-11-27T07:20:57.676Z,2.33
2017-11-27T07:22:07.109Z,2.25
2017-11-27T07:23:16.570Z,2.26
2017-11-27T07:24:26.566Z,2.19
2017-11-27T07:25:36.017Z,2.33
2017-11-27T07:26:46.004Z,2.22
2017-11-27T07:27:55.731Z,2.22
2017-11-27T07:29:05.716Z,2.33
2017-11-27T07:30:15.429Z,2.23
2017-11-27T07:31:24.613Z,2.22
2017-11-27T07:32:34.596Z,2.25
2017-11-27T07:33:44.364Z,2.23
2017-11-27T07:34:54.355Z,2.23
2017-11-27T07:36:04.319Z,2.22
2017-11-27T07:37:13.764Z,2.26
2017-11-27T07:38:23.733Z,2.26
2017-11-27T07:39:33.438Z,2.3
2017-11-27T07:40:43.420Z,2.36
2017-11-27T07:41:53.386Z,2.28
2017-11-27T07:43:03.373Z,2.36
2017-11-27T07:44:13.355Z,2.46
2017-11-27T07:45:23.346Z,2.4
2017-11-27T07:46:33.052Z,2.51
2017-11-27T07:47:43.016Z,2.46
2017-11-27T07:48:53.015Z,2.55
2017-11-27T07:50:02.480Z,2.57
2017-11-27T07:51:12.196Z,2.59
2017-11-27T07:52:21.896Z,2.69
2017-11-27T07:53:31.866Z,2.64
2017-11-27T07:54:41.574Z,2.72
2017-11-27T07:55:51.544Z,2.75
2017-11-27T07:57:01.255Z,2.75
2017-11-27T07:58:10.947Z,2.8
2017-11-27T07:59:20.647Z,2.83
2017-11-27T08:00:30.623Z,2.88
2017-11-27T08:01:40.345Z,2.87
2017-11-27T08:02:50.316Z,2.97
2017-11-27T08:04:00.279Z,2.97
2017-11-27T08:05:09.986Z,2.98
2017-11-27T08:06:19.962Z,2.97
2017-11-27T08:07:29.719Z,2.93
2017-11-27T08:08:39.441Z,3.06
2017-11-27T08:09:49.090Z,3.11
2017-11-27T08:10:58.634Z,3.22
2017-11-27T08:12:08.650Z,3.33
2017-11-27T08:13:18.646Z,3.43
2017-11-27T08:14:28.633Z,3.36
2017-11-27T08:15:38.378Z,3.27
2017-11-27T08:16:48.117Z,3.3
2017-11-27T08:17:58.083Z,3.34
2017-11-27T08:19:07.807Z,3.4
2017-11-27T08:20:17.276Z,3.52
2017-11-27T08:21:27.261Z,3.5
2017-11-27T08:22:36.977Z,3.49
2017-11-27T08:23:46.955Z,3.48
2017-11-27T08:24:56.147Z,3.52
2017-11-27T08:26:06.127Z,3.48
2017-11-27T08:27:15.603Z,3.37
2017-11-27T08:28:25.602Z,3.29
2017-11-27T08:29:35.083Z,3.3
2017-11-27T08:30:44.555Z,3.33
2017-11-27T08:31:54.534Z,3.31
2017-11-27T08:33:04.534Z,3.46
2017-11-27T08:34:14.581Z,3.53
2017-11-27T08:35:24.042Z,3.55
2017-11-27T08:36:33.250Z,3.71
2017-11-27T08:37:42.952Z,3.81
2017-11-27T08:38:52.943Z,3.88
2017-11-27T08:40:02.675Z,3.84
2017-11-27T08:41:12.671Z,3.84
2017-11-27T08:42:22.424Z,3.89
2017-11-27T08:43:32.144Z,3.82
2017-11-27T08:44:41.860Z,3.78
2017-11-27T08:45:52.083Z,3.86
2017-11-27T08:47:01.551Z,3.88
2017-11-27T08:48:11.011Z,3.85
2017-11-27T08:49:20.491Z,3.92
2017-11-27T08:50:30.464Z,4
2017-11-27T08:51:40.202Z,3.99
2017-11-27T08:52:49.654Z,3.89
2017-11-27T08:53:59.667Z,3.86
2017-11-27T08:55:09.414Z,3.88
2017-11-27T08:56:19.390Z,3.84
2017-11-27T08:57:29.386Z,3.71
2017-11-27T08:58:39.413Z,3.71
2017-11-27T08:59:49.400Z,3.74
2017-11-27T09:00:59.118Z,3.71
2017-11-27T09:02:08.576Z,3.74
2017-11-27T09:03:18.576Z,3.67
2017-11-27T09:04:28.569Z,3.63
2017-11-27T09:05:38.565Z,3.59
2017-11-27T09:06:48.545Z,3.55
2017-11-27T09:07:58.521Z,3.5
2017-11-27T09:09:08.527Z,3.56
2017-11-27T09:10:18.289Z,3.61
2017-11-27T09:11:28.012Z,3.61
2017-11-27T09:12:37.977Z,3.59
2017-11-27T09:13:47.679Z,3.64
2017-11-27T09:14:57.663Z,3.68
2017-11-27T09:16:07.626Z,3.64
2017-11-27T09:17:17.338Z,3.66
2017-11-27T09:18:26.811Z,3.67
2017-11-27T09:19:36.518Z,3.68
2017-11-27T09:20:46.238Z,3.73
2017-11-27T09:21:56.225Z,3.67
2017-11-27T09:23:05.947Z,3.77
2017-11-27T09:24:15.918Z,3.85
2017-11-27T09:25:25.375Z,3.86
2017-11-27T09:26:35.356Z,3.84
2017-11-27T09:27:44.799Z,3.88
2017-11-27T09:28:54.531Z,3.86
2017-11-27T09:30:04.266Z,3.78
2017-11-27T09:31:14.271Z,3.89
2017-11-27T09:32:24.045Z,3.91
2017-11-27T09:33:34.046Z,3.91
2017-11-27T09:34:44.049Z,3.91
2017-11-27T09:35:53.768Z,3.81
2017-11-27T09:37:03.509Z,3.84
2017-11-27T09:38:13.507Z,3.82
2017-11-27T09:39:23.204Z,3.92
2017-11-27T09:40:33.172Z,3.92
2017-11-27T09:41:42.966Z,3.95
2017-11-27T09:42:52.945Z,3.96
2017-11-27T09:44:02.385Z,3.96
2017-11-27T09:45:12.387Z,3.96
2017-11-27T09:46:22.101Z,4.02
2017-11-27T09:47:32.080Z,4
2017-11-27T09:48:42.060Z,4.09
2017-11-27T09:49:52.056Z,4.04
2017-11-27T09:51:01.516Z,4.1
2017-11-27T09:52:11.234Z,4.18
2017-11-27T09:53:21.235Z,4.2
2017-11-27T09:54:30.944Z,4.13
2017-11-27T09:55:40.676Z,4.27
2017-11-27T09:56:50.134Z,4.22
2017-11-27T09:57:59.588Z,4.27
2017-11-27T09:59:09.590Z,4.27
2017-11-27T10:00:19.621Z,4.27
2017-11-27T10:01:29.588Z,4.28
2017-11-27T10:02:39.297Z,4.27
2017-11-27T10:03:49.038Z,4.36
2017-11-27T10:04:59.133Z,4.28
2017-11-27T10:06:09.110Z,4.28
2017-11-27T10:07:19.097Z,4.42
2017-11-27T10:08:28.842Z,4.24
2017-11-27T10:09:38.543Z,4.27
2017-11-27T10:10:48.530Z,4.32
2017-11-27T10:11:57.461Z,4.32
2017-11-27T10:13:07.459Z,4.36
2017-11-27T10:14:17.448Z,4.45
2017-11-27T10:15:27.180Z,4.42
2017-11-27T10:16:37.177Z,4.43
2017-11-27T10:17:47.171Z,4.4
2017-11-27T10:18:57.164Z,4.5
2017-11-27T10:20:06.869Z,4.52
2017-11-27T10:21:16.834Z,4.56
2017-11-27T10:22:26.820Z,4.57
2017-11-27T10:23:36.796Z,4.58
2017-11-27T10:24:46.789Z,4.53
2017-11-27T10:25:57.008Z,4.56
2017-11-27T10:27:06.988Z,4.57
2017-11-27T10:28:16.705Z,4.56
2017-11-27T10:29:26.425Z,4.61
2017-11-27T10:30:36.390Z,4.57
2017-11-27T10:31:46.378Z,4.66
2017-11-27T10:32:56.360Z,4.67
2017-11-27T10:34:06.381Z,4.75
2017-11-27T10:35:16.081Z,4.74
2017-11-27T10:36:26.064Z,4.79
2017-11-27T10:37:35.788Z,4.84
2017-11-27T10:38:45.516Z,4.84
2017-11-27T10:39:55.488Z,4.89
2017-11-27T10:41:05.236Z,4.98
2017-11-27T10:42:15.231Z,4.97
2017-11-27T10:43:24.962Z,5.01
2017-11-27T10:44:34.979Z,5.1
2017-11-27T10:45:44.987Z,5.19
2017-11-27T10:46:54.448Z,5.25
2017-11-27T10:48:04.424Z,5.31
2017-11-27T10:49:14.141Z,5.38
2017-11-27T10:50:23.890Z,5.56
2017-11-27T10:51:33.611Z,5.7
2017-11-27T10:52:43.608Z,5.64
2017-11-27T10:53:53.606Z,5.74
2017-11-27T10:55:03.328Z,5.99
2017-11-27T10:56:13.327Z,6.16
2017-11-27T10:57:23.077Z,6.35
2017-11-27T10:58:33.041Z,6.62
2017-11-27T10:59:42.778Z,6.85
2017-11-27T11:00:52.753Z,7.03
2017-11-27T11:02:02.495Z,7.29
2017-11-27T11:03:12.204Z,7.31
2017-11-27T11:04:22.197Z,7.29
2017-11-27T11:05:32.172Z,7.25
2017-11-27T11:06:41.885Z,7.32
2017-11-27T11:07:51.608Z,7.33
2017-11-27T11:09:01.061Z,7.39
2017-11-27T11:10:10.815Z,7.4
2017-11-27T11:11:20.543Z,7.4
2017-11-27T11:12:30.273Z,7.47
2017-11-27T11:13:39.988Z,7.37
2017-11-27T11:14:49.983Z,7.4
2017-11-27T11:15:59.965Z,7.39
2017-11-27T11:17:09.957Z,7.32
2017-11-27T11:18:19.409Z,7.32
2017-11-27T11:19:29.145Z,7.55
2017-11-27T11:20:38.864Z,7.59
2017-11-27T11:21:48.858Z,7.36
2017-11-27T11:22:58.581Z,7.25
2017-11-27T11:24:08.316Z,7.18
2017-11-27T11:25:18.055Z,7
2017-11-27T11:26:27.527Z,6.93
2017-11-27T11:27:37.028Z,6.92
2017-11-27T11:28:47.027Z,6.87
2017-11-27T11:29:57.002Z,6.89
2017-11-27T11:31:06.988Z,6.74
2017-11-27T11:32:16.492Z,6.59
2017-11-27T11:33:26.261Z,6.53
2017-11-27T11:34:35.991Z,6.57
2017-11-27T11:35:45.968Z,6.46
2017-11-27T11:36:55.691Z,6.44
2017-11-27T11:38:05.407Z,6.32
2017-11-27T11:39:15.392Z,6.28
2017-11-27T11:40:25.690Z,6.26
2017-11-27T11:41:35.428Z,6.26
2017-11-27T11:42:45.435Z,6.19
2017-11-27T11:43:55.430Z,6.35
2017-11-27T11:45:05.423Z,6.49
2017-11-27T11:46:15.402Z,6.68
2017-11-27T11:47:25.378Z,6.7
2017-11-27T11:48:34.839Z,6.86
2017-11-27T11:49:44.552Z,7.08
2017-11-27T11:50:54.256Z,6.97
2017-11-27T11:52:03.990Z,6.95
2017-11-27T11:53:13.995Z,6.82
2017-11-27T11:54:23.739Z,6.9
2017-11-27T11:55:33.708Z,6.78
2017-11-27T11:56:43.695Z,6.92
2017-11-27T11:57:53.138Z,6.86
2017-11-27T11:59:02.874Z,6.72
2017-11-27T12:00:12.880Z,6.75
2017-11-27T12:01:22.935Z,6.7
2017-11-27T12:02:32.643Z,6.62
2017-11-27T12:03:42.107Z,6.57
2017-11-27T12:04:51.863Z,6.56
2017-11-27T12:06:01.858Z,6.41
2017-11-27T12:07:11.319Z,6.38
2017-11-27T12:08:20.764Z,6.26
2017-11-27T12:09:30.502Z,6.36
2017-11-27T12:10:40.479Z,6.38
2017-11-27T12:11:50.190Z,6.28
2017-11-27T12:13:00.173Z,6.36
2017-11-27T12:14:10.158Z,6.26
2017-11-27T12:15:19.866Z,6.25
2017-11-27T12:16:29.592Z,6.28
2017-11-27T12:17:39.619Z,6.32
2017-11-27T12:18:49.377Z,6.31
2017-11-27T12:19:58.836Z,6.32
2017-11-27T12:21:08.564Z,6.26
2017-11-27T12:22:18.562Z,6.31
2017-11-27T12:23:28.558Z,6.28
2017-11-27T12:24:38.035Z,6.26
2017-11-27T12:25:48.034Z,6.15
2017-11-27T12:26:58.044Z,6.2
2017-11-27T12:28:07.497Z,6.15
2017-11-27T12:29:17.227Z,6.17
2017-11-27T12:30:26.949Z,6.12
2017-11-27T12:31:36.678Z,6.06
2017-11-27T12:32:46.401Z,6.13
2017-11-27T12:33:56.400Z,6.13
2017-11-27T12:35:06.157Z,6.16
2017-11-27T12:36:16.141Z,6.06
2017-11-27T12:37:25.861Z,6.07
2017-11-27T12:38:35.599Z,6.15
2017-11-27T12:39:45.578Z,6.05
2017-11-27T12:40:55.787Z,5.97
2017-11-27T12:42:05.548Z,5.91
2017-11-27T12:43:15.276Z,5.84
2017-11-27T12:44:24.732Z,5.87
2017-11-27T12:45:34.734Z,5.87
2017-11-27T12:46:44.472Z,5.81
2017-11-27T12:47:54.213Z,5.87
2017-11-27T12:49:04.219Z,5.83
2017-11-27T12:50:14.200Z,5.81
2017-11-27T12:51:23.647Z,5.84
2017-11-27T12:52:33.397Z,5.87
2017-11-27T12:53:43.374Z,5.81
2017-11-27T12:54:53.119Z,5.83
2017-11-27T12:56:02.827Z,5.74
2017-11-27T12:57:12.549Z,5.72
2017-11-27T12:58:22.537Z,5.8
2017-11-27T12:59:32.250Z,5.83
2017-11-27T13:00:41.971Z,5.79
2017-11-27T13:01:51.707Z,5.87
2017-11-27T13:03:01.699Z,5.81
2017-11-27T13:04:11.889Z,5.76
2017-11-27T13:05:21.865Z,5.77
2017-11-27T13:06:31.855Z,5.79
2017-11-27T13:07:41.606Z,5.69
2017-11-27T13:08:51.338Z,5.76
2017-11-27T13:10:01.064Z,5.73
2017-11-27T13:11:11.057Z,5.77
2017-11-27T13:12:20.758Z,5.73
2017-11-27T13:13:30.739Z,5.7
2017-11-27T13:14:40.467Z,5.72
2017-11-27T13:15:49.927Z,5.8
2017-11-27T13:16:59.910Z,5.72
2017-11-27T13:18:09.628Z,5.76
2017-11-27T13:19:19.362Z,5.74
2017-11-27T13:20:29.090Z,5.77
2017-11-27T13:21:38.542Z,5.69
2017-11-27T13:22:48.269Z,5.8
2017-11-27T13:23:57.980Z,5.62
2017-11-27T13:25:07.706Z,5.69
2017-11-27T13:26:17.158Z,5.67
2017-11-27T13:27:27.129Z,5.76
2017-11-27T13:28:36.871Z,5.61
2017-11-27T13:29:46.592Z,5.67
2017-11-27T13:30:56.318Z,5.73
2017-11-27T13:32:06.032Z,5.72
2017-11-27T13:33:16.019Z,5.67
2017-11-27T13:34:26.002Z,5.77
2017-11-27T13:35:35.988Z,5.76
2017-11-27T13:36:45.430Z,5.76
2017-11-27T13:37:55.153Z,5.73
2017-11-27T13:39:05.148Z,5.72
2017-11-27T13:40:14.599Z,5.72
2017-11-27T13:41:24.589Z,5.79
2017-11-27T13:42:34.602Z,5.81
2017-11-27T13:43:44.583Z,5.7
2017-11-27T13:44:53.770Z,5.79
2017-11-27T13:46:03.484Z,5.79
2017-11-27T13:47:12.944Z,5.77
2017-11-27T13:48:22.681Z,5.79
2017-11-27T13:49:32.141Z,5.7
2017-11-27T13:50:42.142Z,5.72
2017-11-27T13:51:51.882Z,5.77
2017-11-27T13:53:01.877Z,5.76
2017-11-27T13:54:11.857Z,5.72
2017-11-27T13:55:21.579Z,5.74
2017-11-27T13:56:31.549Z,5.72
2017-11-27T13:57:41.523Z,5.69
2017-11-27T13:58:51.515Z,5.73
2017-11-27T14:00:01.250Z,5.59
2017-11-27T14:01:11.261Z,5.58
2017-11-27T14:02:20.978Z,5.56
2017-11-27T14:03:30.979Z,5.43
2017-11-27T14:04:40.730Z,5.41
2017-11-27T14:05:50.733Z,5.36
2017-11-27T14:06:59.925Z,5.33
2017-11-27T14:08:09.633Z,5.23
2017-11-27T14:09:19.620Z,5.13
2017-11-27T14:10:29.623Z,5.16
2017-11-27T14:11:39.069Z,5.04
2017-11-27T14:12:48.518Z,5.07
2017-11-27T14:13:57.969Z,5.02
2017-11-27T14:15:07.520Z,4.98
2017-11-27T14:16:17.508Z,4.87
2017-11-27T14:17:26.979Z,4.83
2017-11-27T14:18:36.744Z,4.71
2017-11-27T14:19:46.203Z,4.67
2017-11-27T14:20:55.938Z,4.63
2017-11-27T14:22:05.916Z,4.58
2017-11-27T14:23:15.684Z,4.66
2017-11-27T14:24:25.389Z,4.57
2017-11-27T14:25:35.391Z,4.46
2017-11-27T14:26:45.389Z,4.46
2017-11-27T14:27:55.425Z,4.4
2017-11-27T14:29:05.429Z,4.34
2017-11-27T14:30:14.878Z,4.32
2017-11-27T14:31:24.598Z,4.32
2017-11-27T14:32:34.308Z,4.25
2017-11-27T14:33:44.013Z,4.22
2017-11-27T14:34:53.723Z,4.24
2017-11-27T14:36:03.725Z,4.22
2017-11-27T14:37:13.437Z,4.21
2017-11-27T14:38:23.153Z,4.14
2017-11-27T14:39:32.862Z,4.18
2017-11-27T14:40:42.832Z,4.13
2017-11-27T14:41:52.805Z,4.07
2017-11-27T14:43:02.789Z,4.04
2017-11-27T14:44:12.505Z,4.03
2017-11-27T14:45:22.506Z,4.09
2017-11-27T14:46:32.216Z,4.04
2017-11-27T14:47:41.688Z,4
2017-11-27T14:48:51.393Z,4.1
2017-11-27T14:50:01.110Z,4.06
2017-11-27T14:51:11.097Z,4.14
2017-11-27T14:52:20.815Z,4.02
2017-11-27T14:53:30.790Z,3.95
2017-11-27T14:54:40.775Z,3.92
2017-11-27T14:55:50.778Z,3.94
2017-11-27T14:57:00.480Z,3.88
2017-11-27T14:58:10.245Z,3.85
2017-11-27T14:59:19.732Z,3.82
2017-11-27T15:00:29.449Z,3.89
2017-11-27T15:01:39.436Z,3.76
2017-11-27T15:02:49.418Z,3.88
2017-11-27T15:03:58.898Z,3.89
2017-11-27T15:05:08.877Z,3.82
2017-11-27T15:06:18.686Z,3.81
2017-11-27T15:07:27.881Z,3.92
2017-11-27T15:08:37.319Z,3.84
2017-11-27T15:09:47.027Z,3.88
2017-11-27T15:10:56.993Z,3.86
2017-11-27T15:12:06.442Z,3.84
2017-11-27T15:13:16.431Z,3.89
2017-11-27T15:14:26.441Z,3.95
2017-11-27T15:15:35.905Z,3.85
2017-11-27T15:16:45.616Z,3.85
2017-11-27T15:17:55.613Z,3.85
2017-11-27T15:19:05.575Z,3.89
2017-11-27T15:20:15.579Z,3.78
2017-11-27T15:21:25.301Z,3.86
2017-11-27T15:22:35.268Z,3.82
2017-11-27T15:23:44.991Z,3.73
2017-11-27T15:24:54.703Z,3.81
2017-11-27T15:26:04.425Z,3.77
2017-11-27T15:27:14.141Z,3.74
2017-11-27T15:28:23.875Z,3.71
2017-11-27T15:29:33.334Z,3.71
2017-11-27T15:30:43.046Z,3.81
2017-11-27T15:31:53.275Z,3.7